Skip Navigation Links Skip Navigation Links

Current Weather

Baraboo Wisconsin Dells, Baraboo, Wis.

For information only: do not use for flight planning or navigation.
Latest weather
Observation time Friday, December 3, 2021 4:35 AM CST
Local time Friday, December 3, 2021 4:55 AM CST
Flight conditions Low Instrument Meteorological Conditions
Winds
Wind direction Northeast (40°)
Wind speed 3 mph
Visibility 1.75 mi.
Present weather unknown precipitation
Sky condition
Ceiling 300 ft. overcast
Cloud layer overcast 300 ft.
Temperature 31°F
Dewpoint 31°F
Altimeter 30.04 in.Hg
Precipitation
Precipitation last hour 0.02 in.
Derived measurements
Relative humidity 100%
Wind chill 27°F
Density altitude -982 ft.
Remarks
Fully automated report.
Automated weather observing station with precipitation discriminator.
METAR KDLL 031035Z AUTO 04003KT 1 3/4SM UP OVC003 M01/M01 A3004 RMK AO2 P0002 T10061006

Settings

Location code

InnerDrive.Weather 4.0.6770.0 Release CLR 4.0.30319.42000
Copyright ©2018 Inner Drive Technology. All rights reserved. Portions Copyright ©1986-2018 David Braverman.

Find weather

Site navigation


Skip Navigation Links

Place info

Page info

PayPal - The safer, easier way to pay online!

Return home.

Copyright ©2021 Inner Drive Technology. Purveyors of fine, hand-crafted computer software. Page printed 2021-12-03T10:55:12 UTC.